Time;durP1;ratioP1;P1;durP2;ratioP2;P2;SDS_P1;SDS_P2;PMS_P1;PMS_P2;Temp;Humidity;BMP_temperature;BMP_pressure;BME280_temperature;BME280_humidity;BME280_pressure;Samples;Min_cycle;Max_cycle;Signal;HPM_P1;HPM_P2
2023/05/18 00:01:06;;;;;;;6.67;5.77;;;;;;;;;;5114507;28;20457;-73
2023/05/18 00:03:34;;;;;;;6.77;6.10;;;;;;;;;;5113971;28;20978;-73
2023/05/18 00:06:03;;;;;;;7.93;5.20;;;;;;;;;;5114153;28;20828;-73
2023/05/18 00:08:30;;;;;;;6.13;5.53;;;;;;;;;;5114096;28;20458;-73
2023/05/18 00:10:58;;;;;;;10.23;5.27;;;;;;;;;;5114015;28;20865;-73
2023/05/18 00:13:25;;;;;;;8.20;5.57;;;;;;;;;;5113621;28;20469;-73
2023/05/18 00:15:52;;;;;;;12.67;6.03;;;;;;;;;;5113951;28;21000;-73
2023/05/18 00:18:22;;;;;;;15.40;7.43;;;;;;;;;;5114002;28;20856;-73
2023/05/18 00:20:49;;;;;;;11.17;5.40;;;;;;;;;;5113103;28;20492;-73
2023/05/18 00:23:17;;;;;;;10.80;6.37;;;;;;;;;;5113687;28;20474;-73
2023/05/18 00:25:44;;;;;;;6.90;5.20;;;;;;;;;;5113412;28;20456;-73
2023/05/18 00:28:11;;;;;;;9.30;5.00;;;;;;;;;;5113716;28;20477;-73
2023/05/18 00:30:39;;;;;;;6.07;5.43;;;;;;;;;;5113512;28;20442;-73
2023/05/18 00:33:06;;;;;;;7.37;5.47;;;;;;;;;;5113553;28;20473;-73
2023/05/18 00:35:35;;;;;;;9.03;5.30;;;;;;;;;;5113596;28;20457;-73
2023/05/18 00:38:02;;;;;;;6.07;5.40;;;;;;;;;;5113593;28;20456;-73
2023/05/18 00:40:29;;;;;;;8.87;6.90;;;;;;;;;;5113447;28;20493;-73
2023/05/18 00:42:56;;;;;;;17.30;7.50;;;;;;;;;;5113424;28;20480;-73
2023/05/18 00:45:25;;;;;;;8.40;5.47;;;;;;;;;;5113108;28;20457;-73
2023/05/18 00:47:52;;;;;;;9.50;6.10;;;;;;;;;;5113526;28;20951;-73
2023/05/18 00:50:19;;;;;;;7.23;5.53;;;;;;;;;;5113315;28;20943;-73
2023/05/18 00:52:50;;;;;;;6.17;5.57;;;;;;;;;;5113235;28;20844;-73
2023/05/18 00:55:17;;;;;;;11.63;6.00;;;;;;;;;;5113095;28;20449;-73
2023/05/18 00:57:46;;;;;;;8.80;5.17;;;;;;;;;;5113246;28;20938;-73
2023/05/18 01:00:16;;;;;;;5.83;5.30;;;;;;;;;;5113153;28;20511;-73
2023/05/18 01:02:44;;;;;;;7.93;5.27;;;;;;;;;;5113380;28;20465;-73
2023/05/18 01:05:12;;;;;;;6.67;5.53;;;;;;;;;;5113168;28;20462;-73
2023/05/18 01:07:41;;;;;;;5.97;5.27;;;;;;;;;;5113070;28;20457;-73
2023/05/18 01:10:11;;;;;;;6.50;5.90;;;;;;;;;;5113373;28;20510;-73
2023/05/18 01:12:40;;;;;;;9.70;5.90;;;;;;;;;;5113056;28;20474;-73
2023/05/18 01:15:09;;;;;;;8.90;6.20;;;;;;;;;;5112899;28;20462;-73
2023/05/18 01:17:39;;;;;;;6.63;5.77;;;;;;;;;;5113254;28;20453;-73
2023/05/18 01:20:15;;;;;;;7.53;5.23;;;;;;;;;;5112436;28;20481;-73
2023/05/18 01:23:01;;;;;;;8.00;5.83;;;;;;;;;;5112958;28;20474;-73
2023/05/18 01:25:33;;;;;;;11.00;6.57;;;;;;;;;;5112728;28;20955;-73
2023/05/18 01:28:05;;;;;;;5.83;5.30;;;;;;;;;;5113108;28;20489;-73
2023/05/18 01:30:32;;;;;;;6.97;5.90;;;;;;;;;;5113063;28;20453;-73
2023/05/18 01:32:59;;;;;;;10.70;6.20;;;;;;;;;;5113024;28;20461;-73
2023/05/18 01:35:26;;;;;;;11.90;6.03;;;;;;;;;;5112708;28;20441;-73
2023/05/18 01:37:53;;;;;;;7.77;5.80;;;;;;;;;;5114430;28;20448;-73
2023/05/18 01:40:21;;;;;;;10.70;6.30;;;;;;;;;;5116832;28;20851;-73
2023/05/18 01:42:50;;;;;;;7.50;6.20;;;;;;;;;;5116660;28;20473;-73
2023/05/18 01:45:22;;;;;;;9.80;6.63;;;;;;;;;;5116585;28;20453;-73
2023/05/18 01:47:49;;;;;;;12.60;6.47;;;;;;;;;;5116839;28;20449;-73
2023/05/18 01:50:19;;;;;;;8.20;6.70;;;;;;;;;;5116467;28;20445;-73
2023/05/18 01:52:48;;;;;;;10.63;6.40;;;;;;;;;;5116653;28;20465;-73
2023/05/18 01:55:17;;;;;;;16.23;6.70;;;;;;;;;;5116397;28;20954;-73
2023/05/18 01:57:45;;;;;;;12.00;6.70;;;;;;;;;;5116621;28;20449;-73
2023/05/18 02:00:15;;;;;;;7.07;5.60;;;;;;;;;;5116501;28;20850;-73
2023/05/18 02:02:44;;;;;;;6.47;5.87;;;;;;;;;;5116595;28;20475;-72
2023/05/18 02:05:12;;;;;;;7.23;5.13;;;;;;;;;;5116258;28;20449;-73
2023/05/18 02:07:39;;;;;;;5.97;5.37;;;;;;;;;;5115820;28;20857;-73
2023/05/18 02:10:07;;;;;;;6.23;5.40;;;;;;;;;;5116355;28;20961;-73
2023/05/18 02:12:34;;;;;;;6.50;4.93;;;;;;;;;;5115982;28;20473;-73
2023/05/18 02:15:04;;;;;;;6.10;5.50;;;;;;;;;;5115679;28;20469;-73
2023/05/18 02:17:31;;;;;;;8.07;5.70;;;;;;;;;;5116079;28;20548;-73
2023/05/18 02:20:00;;;;;;;8.97;5.77;;;;;;;;;;5115335;28;20481;-73
2023/05/18 02:22:27;;;;;;;7.00;5.60;;;;;;;;;;5116047;28;20540;-73
2023/05/18 02:24:55;;;;;;;7.83;6.50;;;;;;;;;;5115847;28;20453;-73
2023/05/18 02:27:22;;;;;;;19.57;7.47;;;;;;;;;;5115743;28;20460;-73
2023/05/18 02:29:50;;;;;;;9.97;6.70;;;;;;;;;;5115993;28;20456;-73
2023/05/18 02:32:17;;;;;;;15.97;6.50;;;;;;;;;;5115674;27;20498;-73
2023/05/18 02:34:45;;;;;;;13.90;7.53;;;;;;;;;;5115861;28;20823;-73
2023/05/18 02:37:13;;;;;;;20.57;8.00;;;;;;;;;;5115805;28;20479;-73
2023/05/18 02:39:40;;;;;;;16.97;7.63;;;;;;;;;;5115600;28;20841;-73
2023/05/18 02:42:08;;;;;;;10.37;6.47;;;;;;;;;;5115825;28;20464;-73
2023/05/18 02:44:35;;;;;;;8.90;6.70;;;;;;;;;;5115604;28;20466;-73
2023/05/18 02:47:02;;;;;;;9.07;6.40;;;;;;;;;;5115657;28;20450;-73
2023/05/18 02:49:29;;;;;;;10.30;6.10;;;;;;;;;;5114944;28;20821;-73
2023/05/18 02:51:56;;;;;;;10.40;6.83;;;;;;;;;;5115585;28;20460;-73
2023/05/18 02:54:25;;;;;;;7.80;6.47;;;;;;;;;;5115115;27;20474;-73
2023/05/18 02:56:55;;;;;;;7.83;6.60;;;;;;;;;;5115590;28;20454;-72
2023/05/18 02:59:22;;;;;;;7.73;6.33;;;;;;;;;;5115296;28;20828;-73
2023/05/18 03:01:49;;;;;;;7.80;7.00;;;;;;;;;;5115262;28;20856;-73
2023/05/18 03:04:16;;;;;;;8.27;7.17;;;;;;;;;;5114948;28;20970;-73
2023/05/18 03:06:45;;;;;;;7.83;7.13;;;;;;;;;;5114707;28;20522;-73
2023/05/18 03:09:12;;;;;;;13.20;8.43;;;;;;;;;;5115275;28;20454;-73
2023/05/18 03:11:41;;;;;;;12.57;9.27;;;;;;;;;;5115046;28;20442;-73
2023/05/18 03:14:08;;;;;;;13.43;7.93;;;;;;;;;;5114517;28;20482;-73
2023/05/18 03:16:37;;;;;;;13.63;7.73;;;;;;;;;;5114957;28;20464;-73
2023/05/18 03:19:04;;;;;;;19.70;9.27;;;;;;;;;;5114945;28;20457;-73
2023/05/18 03:21:34;;;;;;;14.20;8.37;;;;;;;;;;5114059;28;20486;-73
2023/05/18 03:24:01;;;;;;;18.70;8.50;;;;;;;;;;5114572;28;20482;-73
2023/05/18 03:26:29;;;;;;;13.67;8.97;;;;;;;;;;5115055;28;20454;-73
2023/05/18 03:28:58;;;;;;;15.00;9.37;;;;;;;;;;5114763;28;20461;-73
2023/05/18 03:31:25;;;;;;;10.20;7.90;;;;;;;;;;5114654;28;20457;-73
2023/05/18 03:33:52;;;;;;;11.40;9.23;;;;;;;;;;5114469;28;20470;-73
2023/05/18 03:36:21;;;;;;;13.67;8.37;;;;;;;;;;5114452;28;20453;-73
2023/05/18 03:38:48;;;;;;;12.43;8.80;;;;;;;;;;5114925;28;20453;-73
2023/05/18 03:41:15;;;;;;;12.13;8.33;;;;;;;;;;5114450;28;20497;-73
2023/05/18 03:43:42;;;;;;;14.40;7.80;;;;;;;;;;5114229;28;20465;-73
2023/05/18 03:46:10;;;;;;;9.80;8.57;;;;;;;;;;5114525;28;20450;-73
2023/05/18 03:48:37;;;;;;;10.30;8.13;;;;;;;;;;5114181;28;20946;-73
2023/05/18 03:51:05;;;;;;;10.67;9.30;;;;;;;;;;5114407;28;20450;-73
2023/05/18 03:53:35;;;;;;;12.20;8.83;;;;;;;;;;5113826;28;20469;-73
2023/05/18 03:56:02;;;;;;;13.77;9.03;;;;;;;;;;5114247;28;20852;-73
2023/05/18 03:58:29;;;;;;;11.13;7.77;;;;;;;;;;5114222;28;20857;-73
2023/05/18 04:00:56;;;;;;;9.33;8.30;;;;;;;;;;5114223;28;20489;-73
2023/05/18 04:03:25;;;;;;;11.83;7.43;;;;;;;;;;5113982;28;20477;-73
2023/05/18 04:05:53;;;;;;;8.93;7.90;;;;;;;;;;5114178;28;20465;-73
2023/05/18 04:08:20;;;;;;;11.97;8.23;;;;;;;;;;5113799;28;20477;-73
2023/05/18 04:10:47;;;;;;;11.57;7.80;;;;;;;;;;5113812;28;20442;-73
2023/05/18 04:13:14;;;;;;;12.27;7.83;;;;;;;;;;5113694;28;20470;-73
2023/05/18 04:15:42;;;;;;;12.90;7.63;;;;;;;;;;5113773;28;20446;-73
2023/05/18 04:18:09;;;;;;;10.43;9.37;;;;;;;;;;5113940;28;20458;-73
2023/05/18 04:20:38;;;;;;;11.03;9.83;;;;;;;;;;5113286;28;20486;-73
2023/05/18 04:23:05;;;;;;;15.07;9.00;;;;;;;;;;5113742;28;20468;-73
2023/05/18 04:25:32;;;;;;;12.00;9.10;;;;;;;;;;5113666;28;20449;-73
2023/05/18 04:27:59;;;;;;;104.27;55.97;;;;;;;;;;5113959;28;20453;-73
2023/05/18 04:30:28;;;;;;;10.30;7.50;;;;;;;;;;5113572;28;20457;-73
2023/05/18 04:32:57;;;;;;;12.40;8.70;;;;;;;;;;5113617;28;20846;-72
2023/05/18 04:35:24;;;;;;;15.10;8.63;;;;;;;;;;5113490;28;20453;-73
2023/05/18 04:37:53;;;;;;;11.73;8.60;;;;;;;;;;5113653;28;20821;-73
2023/05/18 04:40:20;;;;;;;13.00;8.37;;;;;;;;;;5113387;28;20577;-73
2023/05/18 04:42:47;;;;;;;13.47;8.47;;;;;;;;;;5113465;28;20882;-73
2023/05/18 04:45:16;;;;;;;12.23;8.30;;;;;;;;;;5113345;28;20453;-73
2023/05/18 04:47:45;;;;;;;12.37;8.60;;;;;;;;;;5113312;28;20485;-73
2023/05/18 04:50:13;;;;;;;10.87;9.53;;;;;;;;;;5113496;28;20453;-73
2023/05/18 04:52:40;;;;;;;13.70;8.70;;;;;;;;;;5113302;28;21057;-72
2023/05/18 04:55:10;;;;;;;14.97;9.00;;;;;;;;;;5113362;28;20457;-73
2023/05/18 04:57:37;;;;;;;16.80;9.37;;;;;;;;;;5113234;28;20453;-73
2023/05/18 05:00:05;;;;;;;11.07;8.60;;;;;;;;;;5113563;28;20506;-73
2023/05/18 05:02:32;;;;;;;11.60;9.20;;;;;;;;;;5113265;28;20450;-73
2023/05/18 05:04:59;;;;;;;19.20;9.47;;;;;;;;;;5113176;28;20445;-73
2023/05/18 05:07:26;;;;;;;11.90;9.33;;;;;;;;;;5113056;28;20828;-73
2023/05/18 05:09:53;;;;;;;13.50;8.77;;;;;;;;;;5113372;28;20472;-73
2023/05/18 05:12:22;;;;;;;11.27;9.60;;;;;;;;;;5113821;28;20445;-73
2023/05/18 05:14:49;;;;;;;14.30;9.53;;;;;;;;;;5117191;28;20475;-73
2023/05/18 05:17:16;;;;;;;25.53;15.97;;;;;;;;;;5117689;28;20497;-73
2023/05/18 05:19:43;;;;;;;14.20;9.67;;;;;;;;;;5116845;28;20464;-73
2023/05/18 05:22:10;;;;;;;11.77;10.57;;;;;;;;;;5117140;27;20485;-73
2023/05/18 05:24:37;;;;;;;10.33;9.30;;;;;;;;;;5116956;28;20848;-73
2023/05/18 05:27:04;;;;;;;9.57;8.60;;;;;;;;;;5117271;27;20445;-73
2023/05/18 05:29:33;;;;;;;13.70;9.63;;;;;;;;;;5117027;28;20461;-73
2023/05/18 05:32:00;;;;;;;11.57;8.50;;;;;;;;;;5117049;28;20824;-73
2023/05/18 05:34:27;;;;;;;10.37;6.97;;;;;;;;;;5116555;28;20828;-73
2023/05/18 05:36:54;;;;;;;8.90;8.13;;;;;;;;;;5116937;28;20822;-73
2023/05/18 05:39:21;;;;;;;10.43;8.57;;;;;;;;;;5116819;28;20445;-73
2023/05/18 05:41:48;;;;;;;12.03;7.80;;;;;;;;;;5116893;28;20481;-73
2023/05/18 05:44:15;;;;;;;6.53;5.93;;;;;;;;;;5116445;27;20472;-73
2023/05/18 05:46:44;;;;;;;9.27;7.57;;;;;;;;;;5116828;28;20460;-73
2023/05/18 05:49:11;;;;;;;11.30;7.30;;;;;;;;;;5116700;28;20498;-72
2023/05/18 05:51:38;;;;;;;9.97;7.60;;;;;;;;;;5116586;28;20456;-73
2023/05/18 05:54:05;;;;;;;9.50;7.47;;;;;;;;;;5116441;28;20474;-73
2023/05/18 05:56:32;;;;;;;15.60;8.40;;;;;;;;;;5116431;27;20457;-73
2023/05/18 05:58:59;;;;;;;12.30;7.73;;;;;;;;;;5116593;28;20524;-73
2023/05/18 06:01:27;;;;;;;7.60;6.10;;;;;;;;;;5116423;28;20481;-73
2023/05/18 06:03:56;;;;;;;13.40;7.00;;;;;;;;;;5116048;28;20511;-73
2023/05/18 06:06:23;;;;;;;10.37;7.10;;;;;;;;;;5116048;28;20797;-73
2023/05/18 06:08:50;;;;;;;10.93;6.33;;;;;;;;;;5116407;28;20460;-73
2023/05/18 06:11:17;;;;;;;10.53;7.57;;;;;;;;;;5116334;28;20507;-73
2023/05/18 06:13:45;;;;;;;15.20;6.83;;;;;;;;;;5115972;28;21013;-73
2023/05/18 06:16:12;;;;;;;11.73;6.40;;;;;;;;;;5116149;28;20479;-73
2023/05/18 06:18:39;;;;;;;8.90;5.77;;;;;;;;;;5116287;28;20803;-73
2023/05/18 06:21:07;;;;;;;6.73;5.00;;;;;;;;;;5115723;28;20485;-73
2023/05/18 06:23:34;;;;;;;7.63;5.77;;;;;;;;;;5115101;28;20473;-73
2023/05/18 06:26:01;;;;;;;7.67;4.80;;;;;;;;;;5115611;28;20456;-73
2023/05/18 06:28:29;;;;;;;7.90;4.70;;;;;;;;;;5115898;28;20453;-73
2023/05/18 06:30:56;;;;;;;7.00;6.00;;;;;;;;;;5116089;28;20465;-73
2023/05/18 06:33:23;;;;;;;7.30;5.10;;;;;;;;;;5115763;28;20552;-73
2023/05/18 06:35:50;;;;;;;8.27;5.03;;;;;;;;;;5115711;28;20954;-73
2023/05/18 06:38:18;;;;;;;7.67;4.77;;;;;;;;;;5115922;28;20821;-73
2023/05/18 06:40:46;;;;;;;7.93;4.97;;;;;;;;;;5115512;28;20445;-73
2023/05/18 06:43:13;;;;;;;12.30;4.90;;;;;;;;;;5115728;27;20473;-73
2023/05/18 06:45:40;;;;;;;8.63;4.43;;;;;;;;;;5115714;28;20441;-73
2023/05/18 06:48:07;;;;;;;8.03;4.67;;;;;;;;;;5115820;28;20456;-73
2023/05/18 06:50:34;;;;;;;8.20;4.40;;;;;;;;;;5115823;28;20821;-73
2023/05/18 06:53:03;;;;;;;9.10;4.03;;;;;;;;;;5115551;28;20997;-74
2023/05/18 06:55:31;;;;;;;4.97;3.60;;;;;;;;;;5115318;28;20458;-74
2023/05/18 06:57:58;;;;;;;13.67;4.80;;;;;;;;;;5115709;28;20962;-74
2023/05/18 07:00:25;;;;;;;12.40;5.10;;;;;;;;;;5115869;28;20953;-74
2023/05/18 07:02:52;;;;;;;8.30;5.00;;;;;;;;;;5115387;27;20859;-73
2023/05/18 07:05:20;;;;;;;5.43;4.10;;;;;;;;;;5115266;28;20839;-74
2023/05/18 07:07:47;;;;;;;7.37;3.83;;;;;;;;;;5114917;28;20445;-74
2023/05/18 07:10:14;;;;;;;7.17;4.43;;;;;;;;;;5115237;28;20446;-74
2023/05/18 07:12:42;;;;;;;6.90;4.50;;;;;;;;;;5114916;28;20466;-74
2023/05/18 07:15:10;;;;;;;5.50;4.00;;;;;;;;;;5114907;27;20461;-73
2023/05/18 07:17:37;;;;;;;5.53;4.63;;;;;;;;;;5115375;28;20817;-73
2023/05/18 07:20:06;;;;;;;10.90;4.70;;;;;;;;;;5114753;28;20477;-74
2023/05/18 07:22:33;;;;;;;6.30;4.00;;;;;;;;;;5115176;28;20560;-74
2023/05/18 07:25:00;;;;;;;10.00;4.23;;;;;;;;;;5114931;28;20453;-74
2023/05/18 07:27:27;;;;;;;8.80;4.10;;;;;;;;;;5114856;28;20450;-74
2023/05/18 07:29:55;;;;;;;6.83;3.93;;;;;;;;;;5115086;28;20828;-74
2023/05/18 07:32:23;;;;;;;9.40;3.43;;;;;;;;;;5115028;28;20499;-74
2023/05/18 07:34:50;;;;;;;8.73;4.47;;;;;;;;;;5114915;28;20542;-74
2023/05/18 07:37:17;;;;;;;5.90;3.60;;;;;;;;;;5114543;28;20450;-74
2023/05/18 07:39:44;;;;;;;8.03;4.27;;;;;;;;;;5114697;28;20453;-74
2023/05/18 07:42:11;;;;;;;6.20;3.30;;;;;;;;;;5114828;28;20490;-73
2023/05/18 07:44:38;;;;;;;5.83;3.30;;;;;;;;;;5114348;28;20442;-73
2023/05/18 07:47:07;;;;;;;3.47;2.87;;;;;;;;;;5114621;28;20461;-74
2023/05/18 07:49:34;;;;;;;9.73;4.37;;;;;;;;;;5114496;28;20503;-74
2023/05/18 07:52:01;;;;;;;2.93;2.40;;;;;;;;;;5114454;28;20452;-74
2023/05/18 07:54:28;;;;;;;6.90;3.87;;;;;;;;;;5114194;28;20970;-74
2023/05/18 07:56:56;;;;;;;7.73;3.60;;;;;;;;;;5114459;28;20445;-74
2023/05/18 07:59:23;;;;;;;6.50;3.67;;;;;;;;;;5114474;28;21000;-75
2023/05/18 08:01:50;;;;;;;4.40;3.20;;;;;;;;;;5114313;28;20490;-74
2023/05/18 08:04:18;;;;;;;6.93;4.00;;;;;;;;;;5113917;28;20817;-74
2023/05/18 08:06:46;;;;;;;10.03;3.63;;;;;;;;;;5113967;28;20442;-74
2023/05/18 08:09:13;;;;;;;8.77;4.20;;;;;;;;;;5114161;28;20457;-73
2023/05/18 08:11:40;;;;;;;8.23;3.70;;;;;;;;;;5114257;28;20802;-73
2023/05/18 08:14:07;;;;;;;4.67;3.20;;;;;;;;;;5113980;28;20478;-73
2023/05/18 08:16:36;;;;;;;7.97;4.23;;;;;;;;;;5113843;28;20450;-73
2023/05/18 08:19:03;;;;;;;10.77;4.00;;;;;;;;;;5113743;28;20456;-73
2023/05/18 08:21:32;;;;;;;5.40;2.63;;;;;;;;;;5113447;28;21024;-73
2023/05/18 08:23:59;;;;;;;4.90;2.83;;;;;;;;;;5113803;28;20484;-73
2023/05/18 08:26:26;;;;;;;5.90;3.70;;;;;;;;;;5114075;28;20953;-74
2023/05/18 08:28:54;;;;;;;5.20;3.70;;;;;;;;;;5113930;28;20945;-74
2023/05/18 08:31:21;;;;;;;10.53;3.67;;;;;;;;;;5113759;27;20479;-74
2023/05/18 08:33:48;;;;;;;10.40;4.33;;;;;;;;;;5113522;28;20469;-74
2023/05/18 08:36:16;;;;;;;6.90;4.50;;;;;;;;;;5113537;28;20449;-74
2023/05/18 08:38:44;;;;;;;13.23;5.23;;;;;;;;;;5113764;28;20461;-74
2023/05/18 08:41:15;;;;;;;6.00;3.27;;;;;;;;;;5113643;28;20445;-74
2023/05/18 08:43:46;;;;;;;6.43;4.00;;;;;;;;;;5113540;28;20472;-73
2023/05/18 08:46:18;;;;;;;9.23;4.00;;;;;;;;;;5113701;28;20464;-74
2023/05/18 08:48:46;;;;;;;9.70;3.57;;;;;;;;;;5113089;28;20453;-73
2023/05/18 08:51:15;;;;;;;6.10;3.70;;;;;;;;;;5113969;28;20806;-73
2023/05/18 08:53:46;;;;;;;7.03;3.70;;;;;;;;;;5113156;28;20534;-74
2023/05/18 08:56:13;;;;;;;8.00;3.30;;;;;;;;;;5113794;28;20952;-73
2023/05/18 08:58:44;;;;;;;9.90;4.73;;;;;;;;;;5113577;28;20445;-74
2023/05/18 09:01:12;;;;;;;7.40;3.40;;;;;;;;;;5113590;28;20845;-73
2023/05/18 09:03:39;;;;;;;6.27;3.70;;;;;;;;;;5113185;28;20867;-73
2023/05/18 09:06:07;;;;;;;6.63;3.60;;;;;;;;;;5113055;28;20450;-73
2023/05/18 09:08:35;;;;;;;9.30;3.93;;;;;;;;;;5113204;28;20449;-74
2023/05/18 09:11:03;;;;;;;5.80;3.00;;;;;;;;;;5113402;28;20453;-73
2023/05/18 09:13:30;;;;;;;7.30;3.03;;;;;;;;;;5112969;28;21004;-74
2023/05/18 09:15:58;;;;;;;11.40;3.67;;;;;;;;;;5113552;28;20907;-74
2023/05/18 09:18:25;;;;;;;5.63;3.80;;;;;;;;;;5113268;28;20875;-74
2023/05/18 09:20:52;;;;;;;10.83;4.10;;;;;;;;;;5113035;28;20437;-74
2023/05/18 09:23:19;;;;;;;5.90;3.30;;;;;;;;;;5113269;28;20516;-74
2023/05/18 09:25:48;;;;;;;6.57;3.80;;;;;;;;;;5113151;28;20445;-73
2023/05/18 09:28:26;;;;;;;4.37;3.50;;;;;;;;;;5113592;28;20479;-74
2023/05/18 09:30:53;;;;;;;9.23;4.03;;;;;;;;;;5113500;28;20448;-73
2023/05/18 09:33:22;;;;;;;6.03;3.60;;;;;;;;;;5113090;28;20465;-74
2023/05/18 09:35:50;;;;;;;8.90;3.37;;;;;;;;;;5113186;28;20820;-73
2023/05/18 09:38:20;;;;;;;9.27;4.20;;;;;;;;;;5113351;28;20536;-74
2023/05/18 09:40:56;;;;;;;5.70;3.53;;;;;;;;;;5113137;28;20457;-74
2023/05/18 09:43:28;;;;;;;5.57;3.63;;;;;;;;;;5112901;28;20485;-74
2023/05/18 09:45:55;;;;;;;7.00;3.60;;;;;;;;;;5113260;28;20446;-73
2023/05/18 09:48:22;;;;;;;3.80;3.00;;;;;;;;;;5113220;28;20496;-73
2023/05/18 09:50:50;;;;;;;4.50;3.37;;;;;;;;;;5113283;28;20449;-73
2023/05/18 09:53:17;;;;;;;5.27;3.93;;;;;;;;;;5113086;28;20477;-73
2023/05/18 09:55:48;;;;;;;5.83;4.00;;;;;;;;;;5113146;28;20476;-73
2023/05/18 09:58:15;;;;;;;8.23;4.80;;;;;;;;;;5113288;28;20536;-74
2023/05/18 10:00:45;;;;;;;5.20;4.63;;;;;;;;;;5116581;28;20445;-73
2023/05/18 10:03:19;;;;;;;7.67;4.13;;;;;;;;;;5116488;28;20500;-74
2023/05/18 10:05:46;;;;;;;8.40;5.30;;;;;;;;;;5116120;28;20446;-73
2023/05/18 10:08:14;;;;;;;8.40;5.40;;;;;;;;;;5116308;28;20454;-74
2023/05/18 10:10:44;;;;;;;7.20;5.40;;;;;;;;;;5116356;28;20511;-74
2023/05/18 10:13:13;;;;;;;7.47;3.80;;;;;;;;;;5116341;28;20461;-73
2023/05/18 10:15:47;;;;;;;10.17;4.37;;;;;;;;;;5116282;27;20495;-73
2023/05/18 10:18:17;;;;;;;7.60;4.37;;;;;;;;;;5116497;28;20474;-74
2023/05/18 10:20:44;;;;;;;7.73;4.27;;;;;;;;;;5116049;28;20445;-74
2023/05/18 10:23:12;;;;;;;8.63;4.50;;;;;;;;;;5115934;28;20497;-74
2023/05/18 10:25:40;;;;;;;5.87;3.60;;;;;;;;;;5115774;28;20897;-74
2023/05/18 10:28:08;;;;;;;8.60;4.37;;;;;;;;;;5116404;27;20483;-73
2023/05/18 10:30:35;;;;;;;8.73;4.83;;;;;;;;;;5116051;28;20801;-74
2023/05/18 10:33:05;;;;;;;5.80;4.40;;;;;;;;;;5116101;28;20472;-74
2023/05/18 10:35:32;;;;;;;7.60;4.77;;;;;;;;;;5115872;28;20521;-73
2023/05/18 10:38:00;;;;;;;6.10;4.00;;;;;;;;;;5115952;28;20446;-74
2023/05/18 10:40:27;;;;;;;5.23;4.20;;;;;;;;;;5116173;28;20453;-73
2023/05/18 10:42:57;;;;;;;10.13;4.90;;;;;;;;;;5115831;28;20493;-74
2023/05/18 10:45:24;;;;;;;6.13;3.80;;;;;;;;;;5115750;28;20454;-73
2023/05/18 10:47:53;;;;;;;5.83;3.10;;;;;;;;;;5115739;28;20454;-73
2023/05/18 10:50:23;;;;;;;4.47;3.23;;;;;;;;;;5115567;28;20458;-73
2023/05/18 10:52:50;;;;;;;9.00;4.03;;;;;;;;;;5115557;28;20474;-74
2023/05/18 10:55:18;;;;;;;7.27;3.20;;;;;;;;;;5115276;28;20456;-74
2023/05/18 10:57:47;;;;;;;10.87;4.83;;;;;;;;;;5115642;28;20449;-73
2023/05/18 11:00:15;;;;;;;6.20;4.03;;;;;;;;;;5115678;27;20456;-74
2023/05/18 11:02:42;;;;;;;4.80;3.70;;;;;;;;;;5115271;28;20489;-74
2023/05/18 11:05:10;;;;;;;6.70;4.70;;;;;;;;;;5115221;28;20456;-73
2023/05/18 11:07:39;;;;;;;4.43;3.30;;;;;;;;;;5115186;28;20454;-74
2023/05/18 11:10:09;;;;;;;6.03;3.63;;;;;;;;;;5114772;28;20934;-74
2023/05/18 11:12:36;;;;;;;7.97;4.40;;;;;;;;;;5115279;28;20481;-74
2023/05/18 11:15:05;;;;;;;6.93;3.70;;;;;;;;;;5114997;28;20548;-74
2023/05/18 11:17:32;;;;;;;5.67;3.17;;;;;;;;;;5115087;28;20457;-74
2023/05/18 11:20:16;;;;;;;7.50;4.00;;;;;;;;;;5114582;27;20445;-74
2023/05/18 11:22:47;;;;;;;5.30;3.57;;;;;;;;;;5115099;28;20858;-74
2023/05/18 11:25:33;;;;;;;5.33;2.97;;;;;;;;;;5114701;28;20449;-74
2023/05/18 11:28:03;;;;;;;15.33;6.53;;;;;;;;;;5114961;28;20562;-74
2023/05/18 11:30:31;;;;;;;6.30;3.77;;;;;;;;;;5114801;28;20485;-74
2023/05/18 11:33:08;;;;;;;5.40;3.30;;;;;;;;;;5114834;28;20478;-74
2023/05/18 11:35:54;;;;;;;11.67;4.53;;;;;;;;;;5114425;27;20461;-74
2023/05/18 11:38:22;;;;;;;6.03;4.07;;;;;;;;;;5114599;28;20445;-73
2023/05/18 11:40:50;;;;;;;3.93;3.07;;;;;;;;;;5114638;28;20460;-73
2023/05/18 11:43:21;;;;;;;4.40;2.60;;;;;;;;;;5114438;28;20493;-74
2023/05/18 11:45:54;;;;;;;5.33;2.93;;;;;;;;;;5114447;28;20475;-74
2023/05/18 11:48:23;;;;;;;5.67;3.07;;;;;;;;;;5114668;28;20454;-74
2023/05/18 11:50:50;;;;;;;6.90;3.27;;;;;;;;;;5114460;28;20458;-74
2023/05/18 11:53:17;;;;;;;4.10;3.27;;;;;;;;;;5114261;28;20468;-74
2023/05/18 11:55:45;;;;;;;5.90;3.30;;;;;;;;;;5114185;28;20457;-73
2023/05/18 11:58:17;;;;;;;6.13;4.30;;;;;;;;;;5114419;28;20544;-74
2023/05/18 12:00:46;;;;;;;7.37;3.67;;;;;;;;;;5114401;28;20453;-73
2023/05/18 12:03:13;;;;;;;7.93;3.50;;;;;;;;;;5114151;28;20546;-74
2023/05/18 12:05:43;;;;;;;3.43;2.83;;;;;;;;;;5113992;28;20931;-73
2023/05/18 12:08:10;;;;;;;4.63;2.90;;;;;;;;;;5114468;28;20955;-73
2023/05/18 12:10:38;;;;;;;8.80;4.27;;;;;;;;;;5113988;28;20798;-73
2023/05/18 12:13:07;;;;;;;11.13;6.10;;;;;;;;;;5114323;28;20982;-73
2023/05/18 12:15:34;;;;;;;5.60;3.60;;;;;;;;;;5113857;27;20453;-73
2023/05/18 12:18:01;;;;;;;4.83;3.13;;;;;;;;;;5114207;28;20518;-73
2023/05/18 12:20:29;;;;;;;8.70;3.27;;;;;;;;;;5113772;28;20461;-73
2023/05/18 12:22:58;;;;;;;7.10;3.53;;;;;;;;;;5113383;28;20515;-74
2023/05/18 12:25:26;;;;;;;4.17;2.83;;;;;;;;;;5114029;28;20445;-74
2023/05/18 12:27:54;;;;;;;6.10;3.27;;;;;;;;;;5114165;28;20930;-73
2023/05/18 12:30:23;;;;;;;4.97;2.67;;;;;;;;;;5113837;28;20456;-73
2023/05/18 12:32:55;;;;;;;7.40;3.20;;;;;;;;;;5114116;28;20462;-73
2023/05/18 12:35:23;;;;;;;6.27;3.80;;;;;;;;;;5113918;28;20450;-73
2023/05/18 12:37:50;;;;;;;4.70;2.83;;;;;;;;;;5113958;28;21003;-73
2023/05/18 12:40:18;;;;;;;4.27;3.73;;;;;;;;;;5113560;28;20507;-73
2023/05/18 12:42:52;;;;;;;5.73;3.17;;;;;;;;;;5113716;28;20472;-73
2023/05/18 12:45:20;;;;;;;4.17;3.00;;;;;;;;;;5113493;28;20453;-73
2023/05/18 12:47:52;;;;;;;3.93;2.90;;;;;;;;;;5113800;28;20456;-73
2023/05/18 12:50:20;;;;;;;4.30;2.80;;;;;;;;;;5113713;28;20453;-73
2023/05/18 12:52:48;;;;;;;2.57;1.80;;;;;;;;;;5113555;28;20473;-73
2023/05/18 12:55:16;;;;;;;5.53;2.80;;;;;;;;;;5113377;28;20442;-73
2023/05/18 12:57:45;;;;;;;4.37;2.60;;;;;;;;;;5113497;28;20454;-74
2023/05/18 13:00:13;;;;;;;3.07;2.77;;;;;;;;;;5113633;28;20541;-73
2023/05/18 13:02:41;;;;;;;2.67;2.40;;;;;;;;;;5113470;28;20982;-73
2023/05/18 13:05:10;;;;;;;8.53;3.13;;;;;;;;;;5113331;28;20545;-73
2023/05/18 13:07:38;;;;;;;4.33;2.67;;;;;;;;;;5113108;28;20458;-73
2023/05/18 13:10:09;;;;;;;3.93;2.13;;;;;;;;;;5113681;28;20868;-74
2023/05/18 13:12:39;;;;;;;4.60;2.20;;;;;;;;;;5113222;28;20473;-75
2023/05/18 13:15:10;;;;;;;2.77;1.80;;;;;;;;;;5112831;28;20507;-74
2023/05/18 13:17:37;;;;;;;10.13;2.00;;;;;;;;;;5112985;28;20450;-75
2023/05/18 13:20:04;;;;;;;2.67;2.20;;;;;;;;;;5112887;28;20950;-74
2023/05/18 13:22:34;;;;;;;7.73;2.77;;;;;;;;;;5112829;28;20460;-75
2023/05/18 13:25:01;;;;;;;5.70;2.03;;;;;;;;;;5113072;28;20487;-74
2023/05/18 13:27:29;;;;;;;2.80;2.20;;;;;;;;;;5112951;28;20824;-74
2023/05/18 13:29:58;;;;;;;4.17;2.53;;;;;;;;;;5112975;28;20552;-74
2023/05/18 13:32:25;;;;;;;7.77;4.33;;;;;;;;;;5112818;28;20445;-75
2023/05/18 13:34:52;;;;;;;5.10;1.90;;;;;;;;;;5116021;28;20453;-75
2023/05/18 13:37:20;;;;;;;3.37;2.47;;;;;;;;;;5116825;28;20460;-74
2023/05/18 13:39:48;;;;;;;1.77;1.60;;;;;;;;;;5116845;28;20558;-75
2023/05/18 13:42:19;;;;;;;2.40;1.80;;;;;;;;;;5116612;28;20458;-75
2023/05/18 13:44:47;;;;;;;3.10;2.23;;;;;;;;;;5116394;27;20519;-74
2023/05/18 13:47:14;;;;;;;2.97;2.20;;;;;;;;;;5116704;27;20442;-74
2023/05/18 13:49:41;;;;;;;2.80;1.83;;;;;;;;;;5116452;28;20449;-75
2023/05/18 13:52:08;;;;;;;1.90;1.60;;;;;;;;;;5116536;28;20450;-75
2023/05/18 13:54:36;;;;;;;2.53;2.10;;;;;;;;;;5116123;27;20465;-75
2023/05/18 13:57:06;;;;;;;2.47;1.93;;;;;;;;;;5116444;28;20458;-74
2023/05/18 13:59:34;;;;;;;3.77;2.30;;;;;;;;;;5116408;28;20510;-75
2023/05/18 14:02:01;;;;;;;3.00;2.20;;;;;;;;;;5116469;27;20449;-75
2023/05/18 14:04:28;;;;;;;5.60;2.30;;;;;;;;;;5115886;28;20485;-75
2023/05/18 14:06:57;;;;;;;4.60;1.90;;;;;;;;;;5115957;28;20453;-74
2023/05/18 14:09:24;;;;;;;2.50;1.80;;;;;;;;;;5116196;28;20475;-75
2023/05/18 14:11:52;;;;;;;2.47;2.17;;;;;;;;;;5116287;28;20458;-75
2023/05/18 14:14:20;;;;;;;5.83;2.07;;;;;;;;;;5115762;28;20633;-75
2023/05/18 14:16:47;;;;;;;1.97;1.77;;;;;;;;;;5116092;28;20445;-75
2023/05/18 14:19:14;;;;;;;2.83;2.10;;;;;;;;;;5116110;27;20446;-75
2023/05/18 14:21:41;;;;;;;2.97;2.07;;;;;;;;;;5115693;28;20453;-75
2023/05/18 14:24:09;;;;;;;2.70;1.60;;;;;;;;;;5115693;28;20512;-74
2023/05/18 14:26:37;;;;;;;4.53;2.00;;;;;;;;;;5115974;28;20829;-75
2023/05/18 14:29:04;;;;;;;2.20;2.00;;;;;;;;;;5115880;28;20871;-75
2023/05/18 14:31:33;;;;;;;2.57;1.70;;;;;;;;;;5115718;28;20453;-75
2023/05/18 14:34:01;;;;;;;2.40;1.90;;;;;;;;;;5115572;28;20474;-75
2023/05/18 14:36:28;;;;;;;2.87;1.87;;;;;;;;;;5115642;28;20450;-74
2023/05/18 14:38:55;;;;;;;4.47;2.47;;;;;;;;;;5115713;28;20445;-75
2023/05/18 14:41:22;;;;;;;2.07;1.77;;;;;;;;;;5115568;28;20457;-74
2023/05/18 14:43:49;;;;;;;3.37;2.13;;;;;;;;;;5115290;28;20489;-74